ITY96 EDDH-EPWA
Flight info
| Callsign | ITY96 |
|---|---|
| Flight time | 1h 13m |
| Altitude | 33000 |
| Route | RAMAR6B RAMAR DCT PABMI DCT RADEL DCT ALUKA DCT DENKO P851 BIMPA |
| Aircraft | A320/M-SDE3FGHIRWY/LB1 |
Departure
| Time | 2026-04-22 21:52 |
|---|---|
| Airport | Hamburg Helmut Schmidt Airport (EDDH) |
Arrival
| Time | 2026-04-22 23:06 |
|---|---|
| Airport | Warsaw Chopin Airport (EPWA) |
| Time | Latitude | Longitude | Altitude | Speed | Heading |
|---|---|---|---|---|---|
| 2026-04-22 21:25 | 53.62939 | 9.99227 | 44 ft | 0 kts | 242° |
| 2026-04-22 21:43 | 53.62947 | 9.99250 | 44 ft | 4 kts | 240° |
| 2026-04-22 21:43 | 53.62961 | 9.99288 | 41 ft | 4 kts | 232° |
| 2026-04-22 21:43 | 53.62979 | 9.99319 | 43 ft | 4 kts | 204° |
| 2026-04-22 21:44 | 53.62997 | 9.99324 | 45 ft | 0 kts | 155° |
| 2026-04-22 21:47 | 53.62991 | 9.99328 | 45 ft | 3 kts | 155° |
| 2026-04-22 21:47 | 53.62975 | 9.99341 | 42 ft | 3 kts | 154° |
| 2026-04-22 21:47 | 53.62939 | 9.99371 | 45 ft | 8 kts | 153° |
| 2026-04-22 21:47 | 53.62892 | 9.99411 | 45 ft | 7 kts | 153° |
| 2026-04-22 21:48 | 53.62855 | 9.99444 | 45 ft | 5 kts | 151° |
| 2026-04-22 21:48 | 53.62808 | 9.99486 | 45 ft | 13 kts | 152° |
| 2026-04-22 21:48 | 53.62730 | 9.99554 | 46 ft | 12 kts | 152° |
| 2026-04-22 21:48 | 53.62665 | 9.99613 | 46 ft | 10 kts | 149° |
| 2026-04-22 21:49 | 53.62635 | 9.99696 | 43 ft | 8 kts | 95° |
| 2026-04-22 21:49 | 53.62642 | 9.99770 | 47 ft | 5 kts | 73° |
| 2026-04-22 21:49 | 53.62653 | 9.99808 | 45 ft | 2 kts | 54° |
| 2026-04-22 21:49 | 53.62664 | 9.99827 | 47 ft | 9 kts | 41° |
| 2026-04-22 21:50 | 53.62736 | 9.99856 | 47 ft | 11 kts | 341° |
| 2026-04-22 21:50 | 53.62823 | 9.99784 | 47 ft | 15 kts | 333° |
| 2026-04-22 21:50 | 53.62848 | 9.99762 | 47 ft | 0 kts | 333° |
| 2026-04-22 21:51 | 53.62880 | 9.99734 | 47 ft | 27 kts | 333° |
| 2026-04-22 21:52 | 53.64062 | 9.98714 | 43 ft | 152 kts | 334° |
| 2026-04-22 21:52 | 53.65071 | 9.97846 | 447 ft | 162 kts | 331° |
| 2026-04-22 21:52 | 53.66114 | 9.96975 | 943 ft | 177 kts | 329° |
| 2026-04-22 21:52 | 53.67287 | 9.95946 | 1277 ft | 202 kts | 329° |
| 2026-04-22 21:53 | 53.68585 | 9.94880 | 1917 ft | 212 kts | 340° |
| 2026-04-22 21:53 | 53.70073 | 9.94628 | 2684 ft | 219 kts | 357° |
| 2026-04-22 21:53 | 53.71604 | 9.94658 | 3479 ft | 222 kts | 359° |
| 2026-04-22 21:53 | 53.73090 | 9.95327 | 4219 ft | 232 kts | 29° |
| 2026-04-22 21:54 | 53.74300 | 9.97288 | 4669 ft | 257 kts | 58° |
| 2026-04-22 21:54 | 53.74774 | 10.00308 | 5091 ft | 280 kts | 94° |
| 2026-04-22 21:54 | 53.74335 | 10.03547 | 5825 ft | 287 kts | 108° |
| 2026-04-22 21:54 | 53.73758 | 10.06800 | 6682 ft | 291 kts | 108° |
| 2026-04-22 21:55 | 53.73170 | 10.10077 | 7529 ft | 294 kts | 108° |
| 2026-04-22 21:55 | 53.72571 | 10.13403 | 8371 ft | 298 kts | 108° |
| 2026-04-22 21:55 | 53.71966 | 10.16770 | 9196 ft | 301 kts | 108° |
| 2026-04-22 21:55 | 53.71356 | 10.20185 | 10010 ft | 305 kts | 108° |
| 2026-04-22 21:56 | 53.70732 | 10.23688 | 10486 ft | 322 kts | 107° |
| 2026-04-22 21:56 | 53.70070 | 10.27394 | 10750 ft | 344 kts | 107° |
| 2026-04-22 21:56 | 53.69367 | 10.31328 | 11335 ft | 354 kts | 107° |
| 2026-04-22 21:56 | 53.68642 | 10.35383 | 12071 ft | 359 kts | 107° |
| 2026-04-22 21:57 | 53.67928 | 10.39381 | 12798 ft | 363 kts | 107° |
| 2026-04-22 21:57 | 53.67197 | 10.43465 | 13517 ft | 366 kts | 107° |
| 2026-04-22 21:57 | 53.66455 | 10.47603 | 14212 ft | 370 kts | 107° |
| 2026-04-22 21:57 | 53.65703 | 10.51772 | 14891 ft | 374 kts | 108° |
| 2026-04-22 21:58 | 53.64941 | 10.55988 | 15553 ft | 377 kts | 108° |
| 2026-04-22 21:58 | 53.64172 | 10.60233 | 16196 ft | 381 kts | 108° |
| 2026-04-22 21:58 | 53.63393 | 10.64518 | 16826 ft | 384 kts | 108° |
| 2026-04-22 21:58 | 53.62606 | 10.68834 | 17445 ft | 388 kts | 108° |
| 2026-04-22 21:59 | 53.61806 | 10.73208 | 18042 ft | 391 kts | 108° |
| 2026-04-22 21:59 | 53.61004 | 10.77591 | 18627 ft | 395 kts | 108° |
| 2026-04-22 21:59 | 53.60189 | 10.82032 | 19211 ft | 398 kts | 108° |
| 2026-04-22 21:59 | 53.59368 | 10.86489 | 19777 ft | 401 kts | 108° |
| 2026-04-22 22:00 | 53.58531 | 10.91009 | 20341 ft | 405 kts | 108° |
| 2026-04-22 22:00 | 53.57690 | 10.95546 | 20893 ft | 408 kts | 108° |
| 2026-04-22 22:00 | 53.56842 | 11.00116 | 21424 ft | 411 kts | 108° |
| 2026-04-22 22:00 | 53.55983 | 11.04732 | 21964 ft | 414 kts | 108° |
| 2026-04-22 22:01 | 53.55119 | 11.09358 | 22476 ft | 418 kts | 108° |
| 2026-04-22 22:01 | 53.54245 | 11.14037 | 22989 ft | 421 kts | 108° |
| 2026-04-22 22:01 | 53.53366 | 11.18732 | 23475 ft | 424 kts | 108° |
| 2026-04-22 22:01 | 53.52469 | 11.23502 | 23950 ft | 427 kts | 108° |
| 2026-04-22 22:02 | 53.51573 | 11.28259 | 24412 ft | 430 kts | 108° |
| 2026-04-22 22:02 | 53.50665 | 11.33076 | 24853 ft | 433 kts | 108° |
| 2026-04-22 22:02 | 53.49752 | 11.37912 | 25287 ft | 436 kts | 108° |
| 2026-04-22 22:02 | 53.48841 | 11.42734 | 25682 ft | 438 kts | 108° |
| 2026-04-22 22:03 | 53.48077 | 11.46762 | 26014 ft | 440 kts | 108° |
| 2026-04-22 22:03 | 53.47312 | 11.50769 | 26342 ft | 442 kts | 108° |
| 2026-04-22 22:03 | 53.46368 | 11.55702 | 26720 ft | 445 kts | 108° |
| 2026-04-22 22:03 | 53.45418 | 11.60659 | 27089 ft | 448 kts | 108° |
| 2026-04-22 22:04 | 53.44460 | 11.65650 | 27445 ft | 450 kts | 108° |
| 2026-04-22 22:04 | 53.43498 | 11.70650 | 27807 ft | 452 kts | 108° |
| 2026-04-22 22:04 | 53.42529 | 11.75677 | 28153 ft | 455 kts | 108° |
| 2026-04-22 22:04 | 53.41550 | 11.80752 | 28492 ft | 457 kts | 108° |
| 2026-04-22 22:05 | 53.40569 | 11.85821 | 28817 ft | 459 kts | 108° |
| 2026-04-22 22:05 | 53.39576 | 11.90927 | 29129 ft | 462 kts | 109° |
| 2026-04-22 22:05 | 53.38588 | 11.95986 | 29427 ft | 464 kts | 109° |
| 2026-04-22 22:05 | 53.37582 | 12.01130 | 29721 ft | 466 kts | 109° |
| 2026-04-22 22:06 | 53.36557 | 12.06349 | 30025 ft | 468 kts | 109° |
| 2026-04-22 22:06 | 53.35549 | 12.11473 | 30277 ft | 470 kts | 109° |
| 2026-04-22 22:06 | 53.34520 | 12.16684 | 30539 ft | 472 kts | 109° |
| 2026-04-22 22:06 | 53.33477 | 12.21963 | 30801 ft | 473 kts | 109° |
| 2026-04-22 22:07 | 53.32452 | 12.27139 | 31035 ft | 475 kts | 109° |
| 2026-04-22 22:07 | 53.31411 | 12.32382 | 31366 ft | 474 kts | 109° |
| 2026-04-22 22:07 | 53.30370 | 12.37605 | 31713 ft | 473 kts | 109° |
| 2026-04-22 22:07 | 53.29329 | 12.42821 | 32045 ft | 473 kts | 109° |
| 2026-04-22 22:08 | 53.28289 | 12.48019 | 32374 ft | 472 kts | 109° |
| 2026-04-22 22:08 | 53.27241 | 12.53236 | 32694 ft | 472 kts | 109° |
| 2026-04-22 22:08 | 53.26193 | 12.58419 | 32946 ft | 473 kts | 109° |
| 2026-04-22 22:09 | 53.24062 | 12.68940 | 33009 ft | 483 kts | 109° |
| 2026-04-22 22:09 | 53.21885 | 12.79639 | 33010 ft | 491 kts | 109° |
| 2026-04-22 22:10 | 53.19674 | 12.90488 | 33010 ft | 496 kts | 109° |
| 2026-04-22 22:10 | 53.17433 | 13.01397 | 33010 ft | 499 kts | 109° |
| 2026-04-22 22:11 | 53.15167 | 13.12354 | 33010 ft | 502 kts | 109° |
| 2026-04-22 22:11 | 53.12871 | 13.23402 | 33009 ft | 505 kts | 110° |
| 2026-04-22 22:12 | 53.10579 | 13.34378 | 33358 ft | 486 kts | 110° |
| 2026-04-22 22:12 | 53.09480 | 13.39638 | 33485 ft | 481 kts | 110° |
| 2026-04-22 22:12 | 53.08372 | 13.44918 | 33484 ft | 486 kts | 110° |
| 2026-04-22 22:13 | 53.06112 | 13.55590 | 33485 ft | 492 kts | 110° |
| 2026-04-22 22:13 | 53.03839 | 13.66286 | 33484 ft | 496 kts | 110° |
| 2026-04-22 22:14 | 53.01525 | 13.77134 | 33484 ft | 500 kts | 110° |
| 2026-04-22 22:14 | 52.99184 | 13.88025 | 33483 ft | 500 kts | 110° |
| 2026-04-22 22:15 | 52.96881 | 13.98712 | 33484 ft | 492 kts | 110° |
| 2026-04-22 22:15 | 52.94579 | 14.09338 | 33491 ft | 484 kts | 110° |
| 2026-04-22 22:16 | 52.92672 | 14.18103 | 33484 ft | 489 kts | 110° |
| 2026-04-22 22:16 | 52.90406 | 14.28784 | 33483 ft | 493 kts | 105° |
| 2026-04-22 22:17 | 52.89459 | 14.39878 | 33484 ft | 479 kts | 95° |
| 2026-04-22 22:17 | 52.88733 | 14.50770 | 33484 ft | 475 kts | 97° |
| 2026-04-22 22:18 | 52.87846 | 14.61718 | 33485 ft | 484 kts | 98° |
| 2026-04-22 22:18 | 52.86953 | 14.72834 | 33484 ft | 490 kts | 97° |
| 2026-04-22 22:19 | 52.86104 | 14.84030 | 33484 ft | 491 kts | 97° |
| 2026-04-22 22:19 | 52.85259 | 14.95236 | 33345 ft | 488 kts | 97° |
| 2026-04-22 22:19 | 52.84831 | 15.00780 | 32983 ft | 485 kts | 97° |
| 2026-04-22 22:20 | 52.84395 | 15.06309 | 33015 ft | 486 kts | 97° |
| 2026-04-22 22:20 | 52.83508 | 15.17418 | 33010 ft | 487 kts | 98° |
| 2026-04-22 22:21 | 52.82611 | 15.28535 | 33009 ft | 487 kts | 98° |
| 2026-04-22 22:21 | 52.81701 | 15.39635 | 33009 ft | 487 kts | 98° |
| 2026-04-22 22:22 | 52.80791 | 15.50736 | 33010 ft | 487 kts | 98° |
| 2026-04-22 22:22 | 52.79870 | 15.61830 | 33009 ft | 487 kts | 98° |
| 2026-04-22 22:23 | 52.78939 | 15.72912 | 33010 ft | 487 kts | 98° |
| 2026-04-22 22:23 | 52.77993 | 15.84000 | 33008 ft | 487 kts | 98° |
| 2026-04-22 22:24 | 52.77044 | 15.95027 | 33010 ft | 487 kts | 98° |
| 2026-04-22 22:24 | 52.76077 | 16.06170 | 33010 ft | 487 kts | 98° |
| 2026-04-22 22:25 | 52.75102 | 16.17237 | 33009 ft | 487 kts | 98° |
| 2026-04-22 22:25 | 52.74116 | 16.28249 | 33010 ft | 488 kts | 98° |
| 2026-04-22 22:26 | 52.73120 | 16.39324 | 33009 ft | 488 kts | 98° |
| 2026-04-22 22:26 | 52.72111 | 16.50410 | 33010 ft | 490 kts | 99° |
| 2026-04-22 22:27 | 52.71089 | 16.61545 | 33011 ft | 494 kts | 99° |
| 2026-04-22 22:27 | 52.70054 | 16.72763 | 33009 ft | 496 kts | 99° |
| 2026-04-22 22:28 | 52.68997 | 16.83996 | 33009 ft | 497 kts | 99° |
| 2026-04-22 22:28 | 52.67922 | 16.95269 | 33009 ft | 497 kts | 99° |
| 2026-04-22 22:29 | 52.66843 | 17.06448 | 33009 ft | 497 kts | 99° |
| 2026-04-22 22:29 | 52.65740 | 17.17742 | 33008 ft | 497 kts | 99° |
| 2026-04-22 22:30 | 52.64651 | 17.28897 | 33009 ft | 497 kts | 99° |
| 2026-04-22 22:30 | 52.63541 | 17.40163 | 33009 ft | 497 kts | 99° |
| 2026-04-22 22:31 | 52.62421 | 17.51397 | 33009 ft | 497 kts | 99° |
| 2026-04-22 22:31 | 52.61295 | 17.62600 | 33009 ft | 497 kts | 99° |
| 2026-04-22 22:32 | 52.60152 | 17.73836 | 33008 ft | 497 kts | 100° |
| 2026-04-22 22:32 | 52.58996 | 17.85042 | 33009 ft | 497 kts | 100° |
| 2026-04-22 22:33 | 52.57824 | 17.96221 | 33011 ft | 497 kts | 100° |
| 2026-04-22 22:33 | 52.56646 | 18.07421 | 33009 ft | 497 kts | 100° |
| 2026-04-22 22:34 | 52.55475 | 18.18558 | 33010 ft | 497 kts | 100° |
| 2026-04-22 22:34 | 52.54283 | 18.29755 | 33009 ft | 497 kts | 100° |
| 2026-04-22 22:35 | 52.53075 | 18.40917 | 33009 ft | 497 kts | 100° |
| 2026-04-22 22:35 | 52.51855 | 18.52098 | 33009 ft | 497 kts | 100° |
| 2026-04-22 22:36 | 52.50634 | 18.63263 | 33010 ft | 497 kts | 100° |
| 2026-04-22 22:36 | 52.49406 | 18.74382 | 32154 ft | 490 kts | 101° |
| 2026-04-22 22:36 | 52.48804 | 18.79781 | 32014 ft | 472 kts | 101° |
| 2026-04-22 22:37 | 52.48223 | 18.84992 | 31884 ft | 457 kts | 101° |
| 2026-04-22 22:37 | 52.47655 | 18.90057 | 31588 ft | 447 kts | 101° |
| 2026-04-22 22:37 | 52.47098 | 18.94988 | 31457 ft | 434 kts | 101° |
| 2026-04-22 22:37 | 52.46552 | 18.99794 | 31223 ft | 424 kts | 101° |
| 2026-04-22 22:38 | 52.46014 | 19.04510 | 30838 ft | 419 kts | 101° |
| 2026-04-22 22:38 | 52.45478 | 19.09171 | 30489 ft | 413 kts | 101° |
| 2026-04-22 22:38 | 52.44940 | 19.13831 | 29523 ft | 423 kts | 101° |
| 2026-04-22 22:38 | 52.44382 | 19.18631 | 28727 ft | 429 kts | 101° |
| 2026-04-22 22:39 | 52.43827 | 19.23400 | 28136 ft | 428 kts | 101° |
| 2026-04-22 22:39 | 52.43269 | 19.28196 | 27613 ft | 425 kts | 101° |
| 2026-04-22 22:39 | 52.42718 | 19.32934 | 27099 ft | 422 kts | 101° |
| 2026-04-22 22:39 | 52.42176 | 19.37585 | 26619 ft | 419 kts | 101° |
| 2026-04-22 22:40 | 52.41631 | 19.42252 | 26126 ft | 416 kts | 101° |
| 2026-04-22 22:40 | 52.41089 | 19.46881 | 25413 ft | 419 kts | 101° |
| 2026-04-22 22:40 | 52.40537 | 19.51585 | 24768 ft | 419 kts | 101° |
| 2026-04-22 22:40 | 52.39987 | 19.56247 | 24217 ft | 417 kts | 101° |
| 2026-04-22 22:41 | 52.39431 | 19.60911 | 23718 ft | 414 kts | 101° |
| 2026-04-22 22:41 | 52.38876 | 19.65523 | 23203 ft | 411 kts | 101° |
| 2026-04-22 22:41 | 52.38325 | 19.70101 | 22716 ft | 408 kts | 101° |
| 2026-04-22 22:41 | 52.37897 | 19.74674 | 22239 ft | 405 kts | 92° |
| 2026-04-22 22:42 | 52.38094 | 19.79229 | 21779 ft | 402 kts | 78° |
| 2026-04-22 22:42 | 52.38938 | 19.83570 | 21301 ft | 398 kts | 67° |
| 2026-04-22 22:42 | 52.39970 | 19.87744 | 20807 ft | 396 kts | 67° |
| 2026-04-22 22:42 | 52.40998 | 19.91912 | 20338 ft | 393 kts | 67° |
| 2026-04-22 22:43 | 52.42015 | 19.96055 | 19865 ft | 390 kts | 67° |
| 2026-04-22 22:43 | 52.43020 | 20.00172 | 19401 ft | 388 kts | 67° |
| 2026-04-22 22:43 | 52.44015 | 20.04264 | 18935 ft | 385 kts | 67° |
| 2026-04-22 22:43 | 52.44999 | 20.08323 | 18483 ft | 383 kts | 67° |
| 2026-04-22 22:44 | 52.45982 | 20.12386 | 18127 ft | 377 kts | 68° |
| 2026-04-22 22:44 | 52.46945 | 20.16368 | 17597 ft | 377 kts | 67° |
| 2026-04-22 22:44 | 52.47904 | 20.20337 | 17125 ft | 375 kts | 68° |
| 2026-04-22 22:44 | 52.48866 | 20.24325 | 16676 ft | 373 kts | 68° |
| 2026-04-22 22:45 | 52.49795 | 20.28218 | 16232 ft | 371 kts | 70° |
| 2026-04-22 22:45 | 52.50315 | 20.32387 | 15805 ft | 369 kts | 88° |
| 2026-04-22 22:45 | 52.50069 | 20.36546 | 15377 ft | 365 kts | 105° |
| 2026-04-22 22:45 | 52.49142 | 20.40327 | 14947 ft | 362 kts | 120° |
| 2026-04-22 22:46 | 52.47880 | 20.43955 | 14485 ft | 360 kts | 121° |
| 2026-04-22 22:46 | 52.46658 | 20.47458 | 14059 ft | 358 kts | 121° |
| 2026-04-22 22:46 | 52.45425 | 20.50986 | 13635 ft | 356 kts | 121° |
| 2026-04-22 22:46 | 52.44197 | 20.54500 | 13200 ft | 354 kts | 121° |
| 2026-04-22 22:47 | 52.42982 | 20.57972 | 12758 ft | 351 kts | 121° |
| 2026-04-22 22:47 | 52.41764 | 20.61436 | 12326 ft | 349 kts | 121° |
| 2026-04-22 22:47 | 52.40553 | 20.64876 | 11878 ft | 347 kts | 121° |
| 2026-04-22 22:47 | 52.39356 | 20.68282 | 11435 ft | 345 kts | 121° |
| 2026-04-22 22:48 | 52.38166 | 20.71672 | 10983 ft | 342 kts | 121° |
| 2026-04-22 22:48 | 52.36979 | 20.75046 | 10535 ft | 340 kts | 121° |
| 2026-04-22 22:48 | 52.35801 | 20.78386 | 10088 ft | 338 kts | 121° |
| 2026-04-22 22:48 | 52.34626 | 20.81710 | 9636 ft | 336 kts | 121° |
| 2026-04-22 22:49 | 52.33463 | 20.84998 | 9186 ft | 334 kts | 121° |
| 2026-04-22 22:49 | 52.32299 | 20.88286 | 8728 ft | 332 kts | 121° |
| 2026-04-22 22:49 | 52.31145 | 20.91533 | 8277 ft | 330 kts | 121° |
| 2026-04-22 22:49 | 52.29998 | 20.94761 | 7823 ft | 327 kts | 121° |
| 2026-04-22 22:50 | 52.28875 | 20.97916 | 7680 ft | 314 kts | 121° |
| 2026-04-22 22:50 | 52.27744 | 21.00872 | 7551 ft | 301 kts | 129° |
| 2026-04-22 22:50 | 52.26328 | 21.03260 | 7422 ft | 286 kts | 144° |
| 2026-04-22 22:50 | 52.24708 | 21.04962 | 7299 ft | 271 kts | 155° |
| 2026-04-22 22:51 | 52.23072 | 21.06361 | 7172 ft | 259 kts | 155° |
| 2026-04-22 22:51 | 52.21500 | 21.07716 | 6943 ft | 253 kts | 155° |
| 2026-04-22 22:51 | 52.19955 | 21.09048 | 6608 ft | 251 kts | 155° |
| 2026-04-22 22:51 | 52.18414 | 21.10378 | 6263 ft | 250 kts | 155° |
| 2026-04-22 22:52 | 52.16881 | 21.11702 | 5914 ft | 248 kts | 155° |
| 2026-04-22 22:52 | 52.15360 | 21.13013 | 5569 ft | 247 kts | 155° |
| 2026-04-22 22:52 | 52.13848 | 21.14323 | 5224 ft | 246 kts | 155° |
| 2026-04-22 22:52 | 52.12359 | 21.15625 | 4885 ft | 245 kts | 155° |
| 2026-04-22 22:53 | 52.10853 | 21.16946 | 4552 ft | 243 kts | 155° |
| 2026-04-22 22:53 | 52.09382 | 21.18238 | 4210 ft | 242 kts | 154° |
| 2026-04-22 22:53 | 52.07904 | 21.19533 | 3875 ft | 241 kts | 154° |
| 2026-04-22 22:53 | 52.06433 | 21.20818 | 3539 ft | 239 kts | 155° |
| 2026-04-22 22:54 | 52.04968 | 21.22094 | 3202 ft | 238 kts | 154° |
| 2026-04-22 22:54 | 52.03514 | 21.23357 | 2981 ft | 235 kts | 155° |
| 2026-04-22 22:54 | 52.02067 | 21.24614 | 2958 ft | 237 kts | 154° |
| 2026-04-22 22:54 | 52.00615 | 21.25880 | 3115 ft | 237 kts | 154° |
| 2026-04-22 22:55 | 51.99155 | 21.27143 | 3365 ft | 239 kts | 155° |
| 2026-04-22 22:55 | 51.97691 | 21.28405 | 3615 ft | 240 kts | 155° |
| 2026-04-22 22:55 | 51.94728 | 21.30949 | 3941 ft | 242 kts | 155° |
| 2026-04-22 22:56 | 51.93240 | 21.32229 | 3958 ft | 242 kts | 155° |
| 2026-04-22 22:56 | 51.91754 | 21.33491 | 3960 ft | 241 kts | 159° |
| 2026-04-22 22:56 | 51.90146 | 21.33974 | 3960 ft | 233 kts | 190° |
| 2026-04-22 22:56 | 51.88664 | 21.33114 | 3962 ft | 226 kts | 219° |
| 2026-04-22 22:57 | 51.87649 | 21.31241 | 3959 ft | 222 kts | 244° |
| 2026-04-22 22:57 | 51.86928 | 21.29019 | 3962 ft | 223 kts | 244° |
| 2026-04-22 22:57 | 51.86265 | 21.26766 | 3958 ft | 222 kts | 257° |
| 2026-04-22 22:57 | 51.86290 | 21.24317 | 3960 ft | 221 kts | 289° |
| 2026-04-22 22:58 | 51.87146 | 21.22313 | 3961 ft | 225 kts | 321° |
| 2026-04-22 22:58 | 51.88528 | 21.21091 | 3964 ft | 228 kts | 330° |
| 2026-04-22 22:58 | 51.89953 | 21.19872 | 3963 ft | 228 kts | 328° |
| 2026-04-22 22:58 | 51.91341 | 21.18630 | 3962 ft | 228 kts | 328° |
| 2026-04-22 22:59 | 51.92719 | 21.17428 | 3962 ft | 229 kts | 329° |
| 2026-04-22 22:59 | 51.94079 | 21.16256 | 3957 ft | 210 kts | 329° |
| 2026-04-22 22:59 | 51.95278 | 21.15224 | 3974 ft | 181 kts | 328° |
| 2026-04-22 22:59 | 51.96295 | 21.14347 | 3963 ft | 151 kts | 327° |
| 2026-04-22 23:00 | 51.97190 | 21.13570 | 3959 ft | 143 kts | 327° |
| 2026-04-22 23:00 | 51.98064 | 21.12811 | 3960 ft | 142 kts | 327° |
| 2026-04-22 23:00 | 51.98932 | 21.12058 | 3903 ft | 142 kts | 327° |
| 2026-04-22 23:00 | 51.99807 | 21.11300 | 3772 ft | 142 kts | 327° |
| 2026-04-22 23:01 | 52.00673 | 21.10549 | 3605 ft | 141 kts | 327° |
| 2026-04-22 23:01 | 52.01530 | 21.09806 | 3431 ft | 141 kts | 327° |
| 2026-04-22 23:01 | 52.02399 | 21.09052 | 3247 ft | 140 kts | 327° |
| 2026-04-22 23:01 | 52.03260 | 21.08306 | 3059 ft | 140 kts | 327° |
| 2026-04-22 23:02 | 52.04115 | 21.07564 | 2876 ft | 140 kts | 327° |
| 2026-04-22 23:02 | 52.04973 | 21.06819 | 2691 ft | 139 kts | 327° |
| 2026-04-22 23:02 | 52.05819 | 21.06084 | 2508 ft | 139 kts | 327° |
| 2026-04-22 23:02 | 52.06671 | 21.05343 | 2324 ft | 139 kts | 327° |
| 2026-04-22 23:03 | 52.07517 | 21.04608 | 2139 ft | 138 kts | 327° |
| 2026-04-22 23:03 | 52.08346 | 21.03887 | 1960 ft | 138 kts | 328° |
| 2026-04-22 23:03 | 52.08896 | 21.03408 | 1842 ft | 138 kts | 328° |
| 2026-04-22 23:03 | 52.09952 | 21.02490 | 1615 ft | 137 kts | 328° |
| 2026-04-22 23:04 | 52.10774 | 21.01774 | 1434 ft | 137 kts | 328° |
| 2026-04-22 23:04 | 52.11589 | 21.01064 | 1258 ft | 137 kts | 328° |
| 2026-04-22 23:04 | 52.12154 | 21.00571 | 1138 ft | 136 kts | 328° |
| 2026-04-22 23:04 | 52.12994 | 20.99839 | 950 ft | 136 kts | 328° |
| 2026-04-22 23:05 | 52.13830 | 20.99110 | 772 ft | 136 kts | 329° |
| 2026-04-22 23:05 | 52.14664 | 20.98382 | 590 ft | 137 kts | 329° |
| 2026-04-22 23:05 | 52.15494 | 20.97658 | 410 ft | 137 kts | 329° |
| 2026-04-22 23:05 | 52.16256 | 20.96990 | 357 ft | 103 kts | 332° |
| 2026-04-22 23:06 | 52.16734 | 20.96573 | 355 ft | 53 kts | 332° |
| 2026-04-22 23:06 | 52.16923 | 20.96409 | 357 ft | 19 kts | 332° |
| 2026-04-22 23:06 | 52.17046 | 20.96309 | 353 ft | 21 kts | 337° |
| 2026-04-22 23:06 | 52.17190 | 20.96249 | 355 ft | 22 kts | 353° |
| 2026-04-22 23:07 | 52.17239 | 20.96244 | 357 ft | 0 kts | 358° |
| 2026-04-22 23:08 | 52.17242 | 20.96244 | 356 ft | 1 kts | 358° |
| 2026-04-22 23:08 | 52.17244 | 20.96244 | 355 ft | 0 kts | 1° |
| 2026-04-22 23:09 | 52.17251 | 20.96244 | 354 ft | 7 kts | 1° |
| 2026-04-22 23:09 | 52.17299 | 20.96247 | 357 ft | 6 kts | 2° |
| 2026-04-22 23:10 | 52.17331 | 20.96249 | 353 ft | 4 kts | 2° |
| 2026-04-22 23:10 | 52.17349 | 20.96252 | 355 ft | 2 kts | 7° |
| 2026-04-22 23:10 | 52.17354 | 20.96253 | 356 ft | 1 kts | 10° |
| 2026-04-22 23:10 | 52.17381 | 20.96273 | 359 ft | 4 kts | 34° |
| 2026-04-22 23:11 | 52.17400 | 20.96304 | 359 ft | 3 kts | 52° |